Ursa Minor — ICGH — position and weather

sailwx.info

Track history (hours):
 
Tides and Currents Weather Stations Pressure Air Temp Water Temp Dewpoint Dewpoint Depression Visibility Wind Speed Wind Dir Waves Ship Positions

Ursa Minor

Last reported at 2016-Jun-25 17:31 UTC. Time now 2016-Jun-25 17:56 UTC.
Position N 44°24' E 008°52'.

Length 205 m; draft 9 m.

Type: Ship. MMSI: 247082300.

Date/timePositionNaut miles runAvg speedWind from/ knotsBaromVisibWave heightAir tempDewpointWater temp
2016-Jun-25 17:31N 44°24' E 008°52'0 0.0
2016-Jun-25 16:28N 44°24' E 008°52'0 0.0
2016-Jun-25 15:28N 44°24' E 008°52'0 0.0
2016-Jun-25 14:28N 44°24' E 008°52'0 0.0
2016-Jun-25 13:30N 44°24' E 008°52'0 0.0
2016-Jun-25 12:24N 44°24' E 008°52'0 0.0
2016-Jun-25 11:27N 44°24' E 008°52'0 0.0
2016-Jun-25 10:30N 44°24' E 008°52'0 0.2
2016-Jun-25 09:33N 44°24' E 008°52'3 3.0
2016-Jun-25 08:34N 44°23' E 008°56'7 7.3
2016-Jun-25 07:34N 44°17' E 009°02'1212.0
2016-Jun-25 06:34N 44°08' E 009°13'1212.0
2016-Jun-25 05:34N 43°59' E 009°24'1212.1
2016-Jun-25 04:33N 43°51' E 009°36'1211.7
2016-Jun-25 03:34N 43°42' E 009°46'1111.3
2016-Jun-25 02:34N 43°33' E 009°56'1111.0
2016-Jun-25 01:34N 43°24' E 010°05'1111.1
2016-Jun-25 00:33N 43°15' E 010°13'1111.4
2016-Jun-24 23:34N 43°05' E 010°20'1211.2
2016-Jun-24 22:32N 42°55' E 010°28'1110.7
2016-Jun-24 21:33N 42°46' E 010°36'1111.1
2016-Jun-24 20:32N 42°37' E 010°45'1111.4
2016-Jun-24 19:34N 42°28' E 010°54'11911.6
2016-Jun-24 09:17N 41°10' E 012°55'1211.6
2016-Jun-24 08:17N 41°04' E 013°08'811.1
2016-Jun-24 07:31N 40°58' E 013°16'17211.2
2016-Jun-23 16:08N 38°48' E 015°43'711.7
2016-Jun-23 15:33N 38°41' E 015°43'1211.9
2016-Jun-23 14:32N 38°29' E 015°43'1111.3
2016-Jun-23 13:34N 38°18' E 015°43'10 9.5
2016-Jun-23 12:34N 38°10' E 015°37'1110.6
2016-Jun-23 11:34N 37°59' E 015°37'1111.0
2016-Jun-23 10:33N 37°53' E 015°48'8 0.2
2016-Jun-21 14:20N 37°53' E 015°59'9 9.7
2016-Jun-21 13:27N 37°53' E 015°48'8 8.8
2016-Jun-21 12:31N 37°57' E 015°39'9 9.7
2016-Jun-21 11:33N 38°06' E 015°35'1010.5
2016-Jun-21 10:33N 38°16' E 015°40'1010.0
2016-Jun-21 09:33N 38°24' E 015°48'7 1.0
2016-Jun-21 02:28N 38°28' E 015°55'0 0.0
2016-Jun-21 01:31N 38°28' E 015°55'0 0.0
2016-Jun-21 00:10N 38°28' E 015°55'0 0.0
2016-Jun-20 23:28N 38°28' E 015°55'0 0.0
2016-Jun-19 23:23N 38°28' E 015°55'0 0.0
2016-Jun-19 22:32N 38°28' E 015°55'1 0.9
2016-Jun-19 21:33N 38°27' E 015°54'2 1.7
2016-Jun-19 20:32N 38°27' E 015°52'0 0.4
2016-Jun-19 19:33N 38°27' E 015°52'2 2.3
2016-Jun-19 18:33N 38°26' E 015°49'9 8.7
2016-Jun-19 17:33N 38°18' E 015°44'9 9.3
2016-Jun-19 16:33N 38°10' E 015°37'9 8.7
2016-Jun-19 15:33N 38°02' E 015°36'9 9.5
2016-Jun-19 14:33N 37°54' E 015°43'10 9.6
2016-Jun-19 13:33N 37°52' E 015°55'7 6.8
2016-Jun-19 12:33N 37°53' E 015°47'7 6.6
2016-Jun-19 11:33N 37°53' E 015°55'  
2016-Jun-17 01:33N 37°53' E 015°52'1110.8
2016-Jun-17 00:33N 37°57' E 015°39'1111.1
2016-Jun-16 23:33N 38°07' E 015°35'1110.5
2016-Jun-16 22:33N 38°17' E 015°40'10 9.6
2016-Jun-16 21:33N 38°26' E 015°35'1111.2
2016-Jun-16 20:33N 38°36' E 015°29'1211.2
2016-Jun-16 19:31N 38°46' E 015°23'12010.9
2016-Jun-16 08:32N 40°29' E 014°01'1111.5
2016-Jun-16 07:34N 40°36' E 013°50'2311.4
2016-Jun-16 05:33N 40°51' E 013°27'1211.7
2016-Jun-16 04:33N 40°59' E 013°15'1211.9
2016-Jun-16 03:33N 41°06' E 013°03'6411.9
2016-Jun-15 22:11N 41°48' E 011°58'911.8
2016-Jun-15 21:23N 41°54' E 011°49'  
Track history (hours):
 
Tides and Currents Weather Stations Pressure Air Temp Water Temp Dewpoint Dewpoint Depression Visibility Wind Speed Wind Dir Waves Ship Positions

Ursa Minor

Last reported at 2016-Jun-25 17:31 UTC. Time now 2016-Jun-25 17:56 UTC.
Position N 44°24' E 008°52'.

Length 205 m; draft 9 m.

Type: Ship. MMSI: 247082300.

Date/timePositionNaut miles runAvg speedWind from/ knotsBaromVisibWave heightAir tempDewpointWater temp
2016-Jun-25 17:31N 44°24' E 008°52'0 0.0
2016-Jun-25 16:28N 44°24' E 008°52'0 0.0
2016-Jun-25 15:28N 44°24' E 008°52'0 0.0
2016-Jun-25 14:28N 44°24' E 008°52'0 0.0
2016-Jun-25 13:30N 44°24' E 008°52'0 0.0
2016-Jun-25 12:24N 44°24' E 008°52'0 0.0
2016-Jun-25 11:27N 44°24' E 008°52'0 0.0
2016-Jun-25 10:30N 44°24' E 008°52'0 0.2
2016-Jun-25 09:33N 44°24' E 008°52'3 3.0
2016-Jun-25 08:34N 44°23' E 008°56'7 7.3
2016-Jun-25 07:34N 44°17' E 009°02'1212.0
2016-Jun-25 06:34N 44°08' E 009°13'1212.0
2016-Jun-25 05:34N 43°59' E 009°24'1212.1
2016-Jun-25 04:33N 43°51' E 009°36'1211.7
2016-Jun-25 03:34N 43°42' E 009°46'1111.3
2016-Jun-25 02:34N 43°33' E 009°56'1111.0
2016-Jun-25 01:34N 43°24' E 010°05'1111.1
2016-Jun-25 00:33N 43°15' E 010°13'1111.4
2016-Jun-24 23:34N 43°05' E 010°20'1211.2
2016-Jun-24 22:32N 42°55' E 010°28'1110.7
2016-Jun-24 21:33N 42°46' E 010°36'1111.1
2016-Jun-24 20:32N 42°37' E 010°45'1111.4
2016-Jun-24 19:34N 42°28' E 010°54'11911.6
2016-Jun-24 09:17N 41°10' E 012°55'1211.6
2016-Jun-24 08:17N 41°04' E 013°08'811.1
2016-Jun-24 07:31N 40°58' E 013°16'17211.2
2016-Jun-23 16:08N 38°48' E 015°43'711.7
2016-Jun-23 15:33N 38°41' E 015°43'1211.9
2016-Jun-23 14:32N 38°29' E 015°43'1111.3
2016-Jun-23 13:34N 38°18' E 015°43'10 9.5
2016-Jun-23 12:34N 38°10' E 015°37'1110.6
2016-Jun-23 11:34N 37°59' E 015°37'1111.0
2016-Jun-23 10:33N 37°53' E 015°48'8 0.2
2016-Jun-21 14:20N 37°53' E 015°59'9 9.7
2016-Jun-21 13:27N 37°53' E 015°48'8 8.8
2016-Jun-21 12:31N 37°57' E 015°39'9 9.7
2016-Jun-21 11:33N 38°06' E 015°35'1010.5
2016-Jun-21 10:33N 38°16' E 015°40'1010.0
2016-Jun-21 09:33N 38°24' E 015°48'7 1.0
2016-Jun-21 02:28N 38°28' E 015°55'0 0.0
2016-Jun-21 01:31N 38°28' E 015°55'0 0.0
2016-Jun-21 00:10N 38°28' E 015°55'0 0.0
2016-Jun-20 23:28N 38°28' E 015°55'0 0.0
2016-Jun-19 23:23N 38°28' E 015°55'0 0.0
2016-Jun-19 22:32N 38°28' E 015°55'1 0.9
2016-Jun-19 21:33N 38°27' E 015°54'2 1.7
2016-Jun-19 20:32N 38°27' E 015°52'0 0.4
2016-Jun-19 19:33N 38°27' E 015°52'2 2.3
2016-Jun-19 18:33N 38°26' E 015°49'9 8.7
2016-Jun-19 17:33N 38°18' E 015°44'9 9.3
2016-Jun-19 16:33N 38°10' E 015°37'9 8.7
2016-Jun-19 15:33N 38°02' E 015°36'9 9.5
2016-Jun-19 14:33N 37°54' E 015°43'10 9.6
2016-Jun-19 13:33N 37°52' E 015°55'7 6.8
2016-Jun-19 12:33N 37°53' E 015°47'7 6.6
2016-Jun-19 11:33N 37°53' E 015°55'  
2016-Jun-17 01:33N 37°53' E 015°52'1110.8
2016-Jun-17 00:33N 37°57' E 015°39'1111.1
2016-Jun-16 23:33N 38°07' E 015°35'1110.5
2016-Jun-16 22:33N 38°17' E 015°40'10 9.6
2016-Jun-16 21:33N 38°26' E 015°35'1111.2
2016-Jun-16 20:33N 38°36' E 015°29'1211.2
2016-Jun-16 19:31N 38°46' E 015°23'12010.9
2016-Jun-16 08:32N 40°29' E 014°01'1111.5
2016-Jun-16 07:34N 40°36' E 013°50'2311.4
2016-Jun-16 05:33N 40°51' E 013°27'1211.7
2016-Jun-16 04:33N 40°59' E 013°15'1211.9
2016-Jun-16 03:33N 41°06' E 013°03'6411.9
2016-Jun-15 22:11N 41°48' E 011°58'911.8
2016-Jun-15 21:23N 41°54' E 011°49'  

Dump ship's entire track history